Time;durP1;ratioP1;P1;durP2;ratioP2;P2;SDS_P1;SDS_P2;PMS_P1;PMS_P2;Temp;Humidity;BMP_temperature;BMP_pressure;BME280_temperature;BME280_humidity;BME280_pressure;Samples;Min_cycle;Max_cycle;Signal;HPM_P1;HPM_P2
2021/08/05 00:00:19;;;;;;;7.43;3.63;;;;;;;22.24;74.58;99625.88;5032525;28;20046;-77
2021/08/05 00:02:48;;;;;;;6.38;3.67;;;;;;;22.08;75.73;99615.13;5035556;28;20052;-77
2021/08/05 00:05:18;;;;;;;5.20;3.65;;;;;;;22.14;75.43;99619.00;5035686;28;20045;-77
2021/08/05 00:07:46;;;;;;;8.07;4.20;;;;;;;21.93;76.74;99633.22;5035526;28;20049;-77
2021/08/05 00:10:15;;;;;;;8.20;4.00;;;;;;;21.90;77.54;99628.13;5035624;28;20045;-77
2021/08/05 00:12:43;;;;;;;8.10;3.88;;;;;;;21.85;77.41;99625.97;5035236;28;20056;-77
2021/08/05 00:15:12;;;;;;;7.38;3.80;;;;;;;21.85;77.26;99625.13;5035351;28;20038;-78
2021/08/05 00:17:40;;;;;;;7.45;3.60;;;;;;;21.82;77.71;99620.06;5034933;28;20601;-77
2021/08/05 00:20:10;;;;;;;6.53;3.70;;;;;;;21.85;77.68;99619.69;5034504;28;20049;-77
2021/08/05 00:22:42;;;;;;;7.75;4.22;;;;;;;22.04;76.49;99611.06;5034928;28;20847;-77
2021/08/05 00:25:11;;;;;;;5.80;3.80;;;;;;;22.06;76.59;99610.88;5035308;28;20042;-77
2021/08/05 00:27:39;;;;;;;8.73;3.67;;;;;;;21.86;78.00;99605.09;5035114;28;20116;-75
2021/08/05 00:30:09;;;;;;;6.45;4.10;;;;;;;22.02;76.92;99594.13;5035443;28;20057;-75
2021/08/05 00:32:38;;;;;;;6.75;4.20;;;;;;;22.06;76.67;99581.84;5035039;28;20045;-75
2021/08/05 00:35:07;;;;;;;5.78;3.50;;;;;;;22.10;76.84;99572.38;5035174;28;20091;-75
2021/08/05 00:37:35;;;;;;;8.75;4.07;;;;;;;21.97;77.28;99563.94;5035052;28;20396;-75
2021/08/05 00:40:06;;;;;;;6.13;3.85;;;;;;;21.90;77.75;99568.41;5035200;28;20048;-76
2021/08/05 00:42:35;;;;;;;7.25;3.70;;;;;;;21.83;77.76;99567.44;5034910;28;20131;-77
2021/08/05 00:45:04;;;;;;;7.25;3.85;;;;;;;21.91;77.30;99553.81;5034733;28;20056;-77
2021/08/05 00:47:32;;;;;;;8.45;3.90;;;;;;;21.86;77.85;99551.63;5034599;28;20069;-77
2021/08/05 00:50:01;;;;;;;8.70;3.90;;;;;;;21.92;77.34;99544.66;5034893;28;20041;-77
2021/08/05 00:52:29;;;;;;;7.97;3.80;;;;;;;21.74;78.44;99541.41;5034417;28;20435;-77
2021/08/05 00:54:57;;;;;;;6.95;3.90;;;;;;;21.78;78.27;99540.00;5035002;28;20046;-77
2021/08/05 00:57:27;;;;;;;7.22;4.00;;;;;;;21.73;78.74;99539.72;5034572;28;20045;-77
2021/08/05 00:59:55;;;;;;;5.70;3.70;;;;;;;21.67;78.92;99539.41;5034780;28;20120;-77
2021/08/05 01:02:27;;;;;;;7.28;3.85;;;;;;;21.80;77.96;99536.06;5033550;28;20119;-76
2021/08/05 01:04:58;;;;;;;5.93;4.03;;;;;;;21.74;77.76;99535.97;5034691;28;20049;-77
2021/08/05 01:07:33;;;;;;;7.80;4.10;;;;;;;21.75;78.08;99529.50;5034480;28;20045;-76
2021/08/05 01:10:10;;;;;;;5.63;3.80;;;;;;;21.76;77.85;99531.19;5034656;28;20056;-76
2021/08/05 01:12:46;;;;;;;6.07;4.10;;;;;;;21.84;77.64;99536.56;5033459;28;20049;-76
2021/08/05 01:15:20;;;;;;;8.55;4.25;;;;;;;21.70;77.82;99525.44;5034295;28;20064;-77
2021/08/05 01:17:50;;;;;;;7.85;3.60;;;;;;;21.67;78.15;99514.97;5033977;28;20045;-77
2021/08/05 01:20:20;;;;;;;7.47;3.85;;;;;;;21.59;78.46;99512.31;5034447;28;20543;-78
2021/08/05 01:23:06;;;;;;;5.95;3.67;;;;;;;21.82;77.64;99500.63;5033957;28;20048;-77
2021/08/05 01:25:45;;;;;;;6.53;3.60;;;;;;;21.68;78.03;99494.94;5034171;28;20045;-77
2021/08/05 01:28:15;;;;;;;6.93;3.67;;;;;;;21.70;77.66;99483.91;5033916;28;20041;-77
2021/08/05 01:30:45;;;;;;;7.25;3.40;;;;;;;21.61;77.79;99482.28;5034179;28;20195;-77
2021/08/05 01:33:17;;;;;;;6.00;3.42;;;;;;;21.50;78.60;99482.72;5034207;28;20042;-77
2021/08/05 01:35:46;;;;;;;8.00;3.53;;;;;;;21.50;78.36;99480.00;5032669;28;20077;-78
2021/08/05 01:38:16;;;;;;;5.13;3.40;;;;;;;21.46;78.49;99474.09;5033815;28;20038;-77
2021/08/05 01:40:46;;;;;;;5.43;3.40;;;;;;;21.51;78.06;99477.09;5033813;28;20057;-77
2021/08/05 01:43:16;;;;;;;7.40;3.42;;;;;;;21.77;76.64;99471.28;5033907;28;20047;-77
2021/08/05 01:45:45;;;;;;;7.05;3.47;;;;;;;21.61;77.60;99466.84;5033644;28;20500;-74
2021/08/05 01:48:15;;;;;;;4.93;3.17;;;;;;;21.56;77.95;99461.13;5033778;28;20050;-74
2021/08/05 01:50:45;;;;;;;5.03;3.45;;;;;;;21.53;77.56;99466.94;5033339;28;20056;-74
2021/08/05 01:53:15;;;;;;;7.28;3.70;;;;;;;21.65;77.27;99462.75;5033536;28;20051;-74
2021/08/05 01:55:45;;;;;;;6.75;3.78;;;;;;;21.49;77.85;99462.88;5033303;28;20111;-75
2021/08/05 01:58:15;;;;;;;6.07;3.10;;;;;;;21.49;78.25;99462.03;5033509;28;20107;-74
2021/08/05 02:00:43;;;;;;;7.05;3.45;;;;;;;21.60;77.64;99464.31;5033306;28;20104;-74
2021/08/05 02:03:13;;;;;;;6.10;3.20;;;;;;;21.69;76.83;99450.50;5033651;28;20079;-74
2021/08/05 02:05:53;;;;;;;6.22;3.40;;;;;;;21.73;76.21;99452.84;5033701;28;20057;-74
2021/08/05 02:08:26;;;;;;;6.28;3.47;;;;;;;21.53;77.58;99450.66;5033609;28;20049;-75
2021/08/05 02:10:57;;;;;;;8.60;3.50;;;;;;;21.47;78.00;99456.78;5032372;28;20054;-74
2021/08/05 02:13:32;;;;;;;6.47;3.47;;;;;;;21.50;77.92;99447.44;5034233;28;20045;-75
2021/08/05 02:16:03;;;;;;;6.85;3.63;;;;;;;21.44;78.74;99454.44;5033797;28;20068;-74
2021/08/05 02:18:33;;;;;;;4.70;3.40;;;;;;;21.51;79.01;99447.25;5033205;28;20053;-75
2021/08/05 02:21:03;;;;;;;5.07;3.70;;;;;;;21.57;78.78;99446.53;5033161;28;20518;-74
2021/08/05 02:23:32;;;;;;;7.22;4.00;;;;;;;21.44;79.22;99438.16;5033050;28;20056;-75
2021/08/05 02:26:01;;;;;;;8.15;3.83;;;;;;;21.49;79.42;99441.16;5033337;28;20042;-79
2021/08/05 02:28:31;;;;;;;5.72;3.40;;;;;;;21.53;79.31;99433.53;5032927;28;20484;-78
2021/08/05 02:31:01;;;;;;;7.63;3.60;;;;;;;21.44;79.98;99438.16;5033388;28;20045;-79
2021/08/05 02:33:32;;;;;;;6.32;3.80;;;;;;;21.61;79.10;99434.28;5032318;28;20045;-78
2021/08/05 02:36:01;;;;;;;5.93;3.65;;;;;;;21.55;78.87;99426.03;5033131;28;20416;-77
2021/08/05 02:38:30;;;;;;;6.82;3.70;;;;;;;21.64;78.94;99428.50;5033051;28;20400;-77
2021/08/05 02:40:58;;;;;;;7.55;3.70;;;;;;;21.58;78.72;99414.81;5033003;28;20041;-76
2021/08/05 02:43:29;;;;;;;6.20;4.10;;;;;;;21.70;77.99;99399.75;5033429;28;20041;-76
2021/08/05 02:45:59;;;;;;;5.50;3.70;;;;;;;21.68;78.31;99394.53;5033583;28;20120;-76
2021/08/05 02:48:28;;;;;;;5.00;3.50;;;;;;;21.65;78.41;99392.19;5033279;28;20045;-76
2021/08/05 02:50:59;;;;;;;6.65;3.85;;;;;;;21.70;78.26;99397.91;5033026;28;20099;-77
2021/08/05 02:53:28;;;;;;;6.88;4.03;;;;;;;21.55;79.29;99396.19;5032982;28;20045;-77
2021/08/05 02:55:57;;;;;;;7.80;3.90;;;;;;;21.34;80.56;99388.75;5033092;28;20046;-76
2021/08/05 02:58:26;;;;;;;6.88;3.63;;;;;;;21.50;79.33;99383.16;5032869;28;20045;-76
2021/08/05 03:00:54;;;;;;;6.85;3.65;;;;;;;21.48;79.90;99385.22;5032478;28;20072;-77
2021/08/05 03:03:25;;;;;;;7.43;4.28;;;;;;;21.46;79.91;99375.59;5032880;28;20076;-77
2021/08/05 03:05:55;;;;;;;6.22;3.53;;;;;;;21.28;80.66;99374.03;5032494;28;20045;-77
2021/08/05 03:08:24;;;;;;;6.32;3.83;;;;;;;21.32;80.91;99369.06;5033091;28;20050;-77
2021/08/05 03:10:52;;;;;;;5.95;3.95;;;;;;;21.05;83.02;99373.19;5032672;28;20153;-76
2021/08/05 03:13:20;;;;;;;9.63;4.32;;;;;;;21.19;81.64;99361.53;5032746;28;20416;-74
2021/08/05 03:15:49;;;;;;;7.13;4.35;;;;;;;21.21;81.73;99355.91;5032084;28;20103;-74
2021/08/05 03:18:19;;;;;;;7.10;4.00;;;;;;;21.32;80.92;99347.38;5032384;28;20125;-74
2021/08/05 03:20:49;;;;;;;8.43;4.47;;;;;;;21.30;80.91;99353.00;5032138;28;20528;-74
2021/08/05 03:23:17;;;;;;;7.85;4.78;;;;;;;21.35;80.34;99345.16;5032740;28;20492;-78
2021/08/05 03:25:48;;;;;;;6.22;4.18;;;;;;;21.33;80.12;99344.50;5032327;28;20065;-76
2021/08/05 03:28:16;;;;;;;6.35;4.13;;;;;;;21.30;80.95;99334.00;5032550;28;20053;-75
2021/08/05 03:30:44;;;;;;;6.53;4.38;;;;;;;21.15;81.25;99330.41;5032121;28;20053;-76
2021/08/05 03:33:12;;;;;;;8.95;4.65;;;;;;;21.09;82.24;99337.38;5032691;28;20073;-76
2021/08/05 03:35:41;;;;;;;6.35;4.60;;;;;;;21.16;81.32;99334.78;5033191;28;20132;-76
2021/08/05 03:38:10;;;;;;;8.05;4.60;;;;;;;21.31;80.73;99329.41;5036288;28;20073;-82
2021/08/05 03:40:39;;;;;;;6.85;4.40;;;;;;;21.39;80.79;99332.06;5035852;28;20041;-83
2021/08/05 03:43:07;;;;;;;7.70;4.18;;;;;;;21.30;81.46;99344.00;5036209;28;20088;-83
2021/08/05 03:45:37;;;;;;;5.57;4.18;;;;;;;21.30;81.37;99334.00;5035677;28;20049;-82
2021/08/05 03:48:06;;;;;;;9.00;4.65;;;;;;;21.30;80.77;99330.44;5036780;28;20052;-80
2021/08/05 03:50:34;;;;;;;7.68;4.88;;;;;;;21.28;81.52;99330.63;5035824;28;20045;-78
2021/08/05 03:53:03;;;;;;;8.18;4.63;;;;;;;21.33;81.65;99339.09;5036063;28;20073;-80
2021/08/05 03:55:32;;;;;;;8.45;4.25;;;;;;;21.45;80.65;99330.50;5036073;28;20043;-79
2021/08/05 03:58:00;;;;;;;8.15;4.70;;;;;;;21.47;80.27;99328.44;5036008;28;20041;-78
2021/08/05 04:00:30;;;;;;;6.97;4.32;;;;;;;21.43;80.61;99327.97;5035696;28;20480;-78
2021/08/05 04:02:58;;;;;;;7.97;4.55;;;;;;;21.46;80.36;99324.88;5035454;28;20099;-80
2021/08/05 04:05:27;;;;;;;7.32;4.45;;;;;;;21.42;80.19;99332.56;5035876;28;20041;-80
2021/08/05 04:07:55;;;;;;;7.43;4.78;;;;;;;21.54;79.65;99332.09;5035674;28;20115;-80
2021/08/05 04:10:23;;;;;;;7.57;4.50;;;;;;;21.58;79.14;99336.97;5035519;28;20046;-79
2021/08/05 04:12:52;;;;;;;6.55;4.70;;;;;;;21.79;77.26;99332.69;5035655;28;20050;-79
2021/08/05 04:15:21;;;;;;;7.38;4.95;;;;;;;21.59;78.49;99337.81;5035575;28;20049;-77
2021/08/05 04:17:49;;;;;;;7.45;4.45;;;;;;;21.50;79.23;99345.19;5034266;28;20049;-77
2021/08/05 04:20:19;;;;;;;6.68;4.80;;;;;;;21.48;79.82;99340.97;5035535;28;20041;-77
2021/08/05 04:22:47;;;;;;;8.13;4.90;;;;;;;21.51;80.13;99341.44;5035200;28;20103;-77
2021/08/05 04:25:16;;;;;;;7.70;4.50;;;;;;;21.70;78.42;99330.03;5035337;28;20133;-77
2021/08/05 04:27:44;;;;;;;8.90;4.40;;;;;;;21.73;79.33;99312.56;5035094;28;20095;-77
2021/08/05 04:30:15;;;;;;;8.25;4.90;;;;;;;21.64;80.14;99322.66;5033632;28;20057;-78
2021/08/05 04:32:44;;;;;;;10.18;5.00;;;;;;;21.56;80.54;99313.75;5035032;28;20547;-78
2021/08/05 04:35:13;;;;;;;8.00;4.63;;;;;;;21.58;80.75;99317.97;5035273;28;20041;-77
2021/08/05 04:37:54;;;;;;;8.32;5.32;;;;;;;21.45;81.89;99315.06;5034731;28;20044;-77
2021/08/05 04:40:23;;;;;;;9.75;5.47;;;;;;;21.56;85.48;99303.75;5035352;28;20132;-76
2021/08/05 04:42:52;;;;;;;7.07;4.97;;;;;;;21.58;80.87;99304.41;5034927;28;20049;-77
2021/08/05 04:45:22;;;;;;;8.18;5.15;;;;;;;21.48;81.55;99303.84;5034857;28;20128;-76
2021/08/05 04:47:56;;;;;;;7.30;4.65;;;;;;;21.45;82.70;99285.22;5033448;28;20136;-78
2021/08/05 04:50:26;;;;;;;7.07;4.93;;;;;;;21.54;81.23;99281.41;5035093;28;20050;-76
2021/08/05 04:52:55;;;;;;;5.80;4.60;;;;;;;21.58;81.37;99279.13;5034372;28;20132;-76
2021/08/05 04:55:23;;;;;;;9.05;5.28;;;;;;;21.60;82.17;99269.78;5034904;28;20041;-77
2021/08/05 04:57:53;;;;;;;7.07;4.40;;;;;;;21.54;81.89;99270.53;5034277;28;20417;-76
2021/08/05 05:00:28;;;;;;;9.13;4.82;;;;;;;21.46;81.43;99251.63;5034912;28;20073;-76
2021/08/05 05:02:56;;;;;;;7.47;4.68;;;;;;;21.23;81.96;99237.25;5034375;28;20048;-75
2021/08/05 05:05:26;;;;;;;8.02;5.50;;;;;;;21.22;83.36;99244.53;5034396;28;20042;-75
2021/08/05 05:07:55;;;;;;;7.80;4.72;;;;;;;21.28;83.15;99245.72;5034077;28;20037;-74
2021/08/05 05:10:24;;;;;;;8.02;5.10;;;;;;;21.34;83.06;99253.13;5034337;28;20057;-74
2021/08/05 05:12:53;;;;;;;6.55;4.85;;;;;;;21.34;82.20;99240.41;5033936;28;20051;-74
2021/08/05 05:15:21;;;;;;;8.68;5.22;;;;;;;21.36;82.07;99237.50;5034709;28;20056;-73
2021/08/05 05:17:51;;;;;;;10.55;5.28;;;;;;;21.39;81.69;99239.84;5033820;28;20045;-74
2021/08/05 05:20:19;;;;;;;10.02;5.70;;;;;;;21.31;83.39;99231.78;5034136;28;20040;-74
2021/08/05 05:22:47;;;;;;;8.98;5.78;;;;;;;21.49;83.21;99240.41;5033913;28;20381;-75
2021/08/05 05:25:15;;;;;;;8.13;5.40;;;;;;;21.43;83.93;99239.28;5033974;28;20053;-75
2021/08/05 05:27:44;;;;;;;9.38;5.72;;;;;;;21.29;85.20;99242.81;5033737;28;20144;-75
2021/08/05 05:30:14;;;;;;;8.68;5.30;;;;;;;21.45;85.18;99249.13;5034008;28;20061;-75
2021/08/05 05:32:44;;;;;;;8.07;5.43;;;;;;;21.31;89.46;99251.59;5033703;28;20084;-76
2021/08/05 05:35:15;;;;;;;9.95;6.22;;;;;;;21.31;90.93;99232.63;5033714;28;20485;-74
2021/08/05 05:37:45;;;;;;;8.75;5.95;;;;;;;21.33;91.51;99236.03;5033619;28;20056;-76
2021/08/05 05:40:16;;;;;;;9.00;5.75;;;;;;;21.59;89.33;99240.97;5033804;28;20053;-75
2021/08/05 05:42:44;;;;;;;8.15;5.95;;;;;;;21.48;90.04;99227.88;5033551;28;20053;-77
2021/08/05 05:45:14;;;;;;;9.63;5.90;;;;;;;21.68;90.58;99195.56;5033653;28;20045;-76
2021/08/05 05:47:42;;;;;;;9.48;6.50;;;;;;;21.51;92.25;99184.06;5033798;28;20046;-76
2021/08/05 05:50:12;;;;;;;8.63;5.68;;;;;;;21.52;91.74;99174.94;5033647;28;20060;-75
2021/08/05 05:52:43;;;;;;;9.40;5.55;;;;;;;21.48;90.20;99173.63;5033686;28;20049;-75
2021/08/05 05:55:11;;;;;;;8.90;5.90;;;;;;;21.22;91.11;99163.19;5033903;28;20408;-75
2021/08/05 05:57:39;;;;;;;12.43;6.80;;;;;;;21.17;93.57;99143.94;5032509;28;20107;-75
2021/08/05 06:00:09;;;;;;;9.18;6.35;;;;;;;21.18;93.22;99151.06;5033394;28;20045;-75
2021/08/05 06:02:37;;;;;;;10.57;6.45;;;;;;;21.17;94.66;99156.66;5033545;28;20038;-78
2021/08/05 06:05:07;;;;;;;11.43;6.63;;;;;;;21.14;94.22;99164.16;5033250;28;20046;-78
2021/08/05 06:07:45;;;;;;;10.07;6.70;;;;;;;21.13;94.58;99165.19;5035276;28;20092;-75
2021/08/05 06:10:17;;;;;;;8.50;6.38;;;;;;;21.09;93.57;99169.28;5033429;28;20045;-76
2021/08/05 06:12:45;;;;;;;10.05;6.50;;;;;;;21.20;93.48;99164.41;5033206;28;20057;-79
2021/08/05 06:15:14;;;;;;;12.48;6.90;;;;;;;21.20;94.67;99161.72;5033559;28;20080;-78
2021/08/05 06:17:44;;;;;;;10.50;7.07;;;;;;;21.13;93.61;99167.91;5033163;28;20041;-78
2021/08/05 06:20:14;;;;;;;11.25;6.65;;;;;;;21.15;94.51;99179.38;5033731;28;20042;-76
2021/08/05 06:22:47;;;;;;;12.57;6.63;;;;;;;21.20;92.47;99186.13;5033331;28;20084;-77
2021/08/05 06:25:16;;;;;;;13.43;7.00;;;;;;;21.19;93.32;99181.72;5033449;28;20052;-76
2021/08/05 06:27:44;;;;;;;12.85;6.57;;;;;;;21.23;92.17;99174.88;5033034;28;20520;-78
2021/08/05 06:30:14;;;;;;;12.30;6.72;;;;;;;21.40;91.33;99165.56;5033173;28;20053;-76
2021/08/05 06:32:42;;;;;;;9.23;6.32;;;;;;;21.50;91.06;99163.41;5032994;28;20053;-77
2021/08/05 06:35:11;;;;;;;9.90;6.70;;;;;;;21.47;91.68;99155.66;5033121;28;20116;-78
2021/08/05 06:37:39;;;;;;;9.40;6.82;;;;;;;21.46;92.07;99143.13;5033023;28;20041;-76
2021/08/05 06:40:10;;;;;;;9.65;6.57;;;;;;;21.53;92.14;99138.63;5031221;28;20133;-76
2021/08/05 06:42:41;;;;;;;9.32;5.97;;;;;;;21.49;91.09;99129.16;5032788;28;20046;-79
2021/08/05 06:45:12;;;;;;;7.90;6.22;;;;;;;21.68;90.03;99131.28;5032677;28;20079;-77
2021/08/05 06:47:44;;;;;;;9.85;6.00;;;;;;;21.57;89.56;99118.22;5031720;28;20049;-77
2021/08/05 06:50:17;;;;;;;9.88;6.15;;;;;;;21.65;90.00;99090.97;5032986;28;20049;-77
2021/08/05 06:52:46;;;;;;;11.60;6.53;;;;;;;21.59;90.01;99077.31;5032762;28;20420;-80
2021/08/05 06:55:16;;;;;;;8.18;5.88;;;;;;;21.57;90.08;99084.81;5033097;28;20049;-76
2021/08/05 06:57:45;;;;;;;8.38;6.50;;;;;;;21.57;88.64;99063.94;5033189;28;20440;-79
2021/08/05 07:00:17;;;;;;;9.40;6.15;;;;;;;21.63;88.75;99056.94;5032993;28;20044;-78
2021/08/05 07:02:48;;;;;;;12.07;6.18;;;;;;;21.66;89.33;99051.13;5032749;28;20050;-78
2021/08/05 07:05:16;;;;;;;10.90;6.47;;;;;;;21.68;87.78;99046.31;5032787;28;20045;-75
2021/08/05 07:07:45;;;;;;;9.15;5.82;;;;;;;21.77;87.34;99037.03;5032305;28;20469;-76
2021/08/05 07:10:13;;;;;;;8.35;5.80;;;;;;;21.68;87.33;99032.75;5032999;28;20092;-76
2021/08/05 07:12:45;;;;;;;9.75;6.03;;;;;;;21.69;87.34;99042.56;5036750;28;20037;-75
2021/08/05 07:15:14;;;;;;;11.70;5.90;;;;;;;21.63;87.29;99036.06;5037038;28;20115;-76
2021/08/05 07:17:44;;;;;;;9.95;6.40;;;;;;;21.58;87.33;99027.66;5036983;28;20068;-75
2021/08/05 07:20:14;;;;;;;7.75;5.32;;;;;;;21.78;86.41;99021.59;5036480;28;20140;-75
2021/08/05 07:22:43;;;;;;;9.60;6.32;;;;;;;21.62;87.94;99006.41;5036678;28;20045;-76
2021/08/05 07:25:14;;;;;;;7.97;5.63;;;;;;;21.66;87.15;99003.09;5036336;28;20128;-76
2021/08/05 07:27:46;;;;;;;8.18;5.85;;;;;;;21.74;85.24;99006.72;5036476;28;20128;-76
2021/08/05 07:30:16;;;;;;;8.77;5.55;;;;;;;21.80;85.01;99011.38;5036794;28;20085;-76
2021/08/05 07:32:45;;;;;;;10.77;5.72;;;;;;;21.70;85.45;99004.38;5036627;28;20042;-76
2021/08/05 07:35:13;;;;;;;9.35;6.30;;;;;;;21.80;84.54;99019.50;5036452;28;20033;-76
2021/08/05 07:37:41;;;;;;;9.57;5.97;;;;;;;21.85;84.27;99027.91;5036282;28;20404;-76
2021/08/05 07:40:11;;;;;;;9.15;6.50;;;;;;;21.81;84.94;99041.06;5034737;28;20057;-76
2021/08/05 07:42:40;;;;;;;9.10;6.07;;;;;;;21.84;85.04;99031.69;5036032;28;20041;-76
2021/08/05 07:45:11;;;;;;;9.82;6.07;;;;;;;21.74;85.72;99025.72;5036007;28;20056;-76
2021/08/05 07:47:39;;;;;;;14.55;7.13;;;;;;;21.65;91.16;99027.72;5036338;28;20053;-76
2021/08/05 07:50:10;;;;;;;11.38;7.05;;;;;;;21.54;91.70;99026.38;5035980;28;20041;-76
2021/08/05 07:52:38;;;;;;;10.65;6.35;;;;;;;21.35;93.28;99026.97;5036216;28;20047;-76
2021/08/05 07:55:07;;;;;;;9.48;6.85;;;;;;;21.28;94.63;99034.19;5035636;28;20054;-75
2021/08/05 07:57:36;;;;;;;12.73;6.90;;;;;;;21.22;95.41;99034.91;5035773;28;20050;-75
2021/08/05 08:00:05;;;;;;;8.63;5.88;;;;;;;21.10;95.69;99029.97;5035899;28;20480;-76
2021/08/05 08:02:36;;;;;;;9.10;6.50;;;;;;;21.09;95.42;99028.28;5035767;28;20056;-75
2021/08/05 08:05:06;;;;;;;10.45;6.68;;;;;;;20.86;97.00;99019.47;5035717;28;20382;-76
2021/08/05 08:07:37;;;;;;;10.48;6.63;;;;;;;20.95;96.50;99021.03;5035830;28;20045;-76
2021/08/05 08:10:07;;;;;;;12.05;6.80;;;;;;;20.72;97.03;99025.72;5035738;28;20045;-76
2021/08/05 08:12:36;;;;;;;10.00;6.40;;;;;;;20.67;97.62;99018.16;5036188;28;20052;-76
2021/08/05 08:15:06;;;;;;;10.38;6.57;;;;;;;20.61;98.14;99023.47;5035545;28;20136;-75
2021/08/05 08:17:36;;;;;;;10.93;7.28;;;;;;;20.60;97.84;99021.78;5035906;28;20443;-75
2021/08/05 08:20:06;;;;;;;10.77;7.20;;;;;;;20.70;98.01;99033.19;5035412;28;20416;-76
2021/08/05 08:22:34;;;;;;;9.10;7.07;;;;;;;20.75;96.09;99049.72;5035147;28;20041;-75
2021/08/05 08:25:03;;;;;;;12.07;7.47;;;;;;;20.75;96.74;99056.00;5035046;28;20049;-75
2021/08/05 08:27:31;;;;;;;11.90;7.07;;;;;;;20.72;95.92;99075.31;5035574;28;20091;-76
2021/08/05 08:30:00;;;;;;;11.05;7.60;;;;;;;20.66;97.45;99102.34;5034770;28;20132;-76
2021/08/05 08:32:28;;;;;;;12.05;6.70;;;;;;;20.74;96.46;99122.03;5035202;28;20045;-76
2021/08/05 08:34:59;;;;;;;12.85;7.20;;;;;;;20.85;96.23;99127.03;5035267;28;20045;-76
2021/08/05 08:37:27;;;;;;;10.48;6.82;;;;;;;20.97;95.73;99121.97;5035374;28;20038;-76
2021/08/05 08:39:56;;;;;;;10.82;7.38;;;;;;;20.99;96.41;99125.34;5035145;28;20042;-76
2021/08/05 08:42:24;;;;;;;14.70;8.30;;;;;;;20.85;100.00;99140.56;5035058;28;20476;-75
2021/08/05 08:44:52;;;;;;;16.52;8.13;;;;;;;20.76;100.00;99135.41;5035026;28;20092;-79
2021/08/05 08:47:23;;;;;;;10.30;7.88;;;;;;;20.65;100.00;99152.09;5035168;28;20089;-76
2021/08/05 08:49:51;;;;;;;12.98;7.38;;;;;;;20.63;100.00;99148.72;5035058;28;20087;-76
2021/08/05 08:52:26;;;;;;;17.40;8.57;;;;;;;20.62;100.00;99156.03;5035010;28;20173;-76
2021/08/05 08:54:56;;;;;;;12.55;8.40;;;;;;;20.79;100.00;99146.72;5034596;28;20049;-76
2021/08/05 08:57:30;;;;;;;11.27;6.95;;;;;;;20.74;100.00;99146.41;5034905;28;20052;-76
2021/08/05 08:59:59;;;;;;;12.35;7.78;;;;;;;20.87;100.00;99151.22;5034556;28;20045;-76
2021/08/05 09:02:28;;;;;;;15.23;7.70;;;;;;;20.88;100.00;99139.34;5034761;28;20049;-76
2021/08/05 09:04:57;;;;;;;10.27;7.88;;;;;;;20.63;100.00;99125.19;5033478;28;20132;-74
2021/08/05 09:07:26;;;;;;;12.15;8.50;;;;;;;20.58;100.00;99123.06;5034773;28;20041;-75
2021/08/05 09:09:55;;;;;;;13.88;9.23;;;;;;;20.65;100.00;99127.72;5034349;28;20045;-76
2021/08/05 09:12:23;;;;;;;12.43;8.27;;;;;;;20.69;100.00;99134.47;5034437;28;20037;-76
2021/08/05 09:14:53;;;;;;;15.27;8.40;;;;;;;20.64;100.00;99126.03;5034436;28;20050;-76
2021/08/05 09:17:25;;;;;;;12.52;8.05;;;;;;;20.49;100.00;99131.44;5034478;28;20033;-76
2021/08/05 09:19:55;;;;;;;13.30;8.40;;;;;;;20.54;100.00;99112.75;5034477;28;20041;-76
2021/08/05 09:22:37;;;;;;;11.88;8.00;;;;;;;20.75;100.00;99095.78;5034459;28;20044;-75
2021/08/05 09:25:38;;;;;;;14.32;8.15;;;;;;;20.71;100.00;99059.25;5033932;28;20049;-75
2021/08/05 09:28:17;;;;;;;14.20;7.88;;;;;;;20.65;100.00;99030.19;5034383;28;20092;-75
2021/08/05 09:30:46;;;;;;;12.45;8.65;;;;;;;20.46;100.00;99018.03;5034698;28;20083;-75
2021/08/05 09:33:16;;;;;;;13.85;8.77;;;;;;;20.41;100.00;99012.31;5033232;28;20037;-77
2021/08/05 09:35:45;;;;;;;13.93;9.02;;;;;;;20.29;100.00;98993.81;5034089;28;20499;-76
2021/08/05 09:38:24;;;;;;;14.52;9.23;;;;;;;20.30;100.00;98994.66;5033778;28;20079;-76
2021/08/05 09:41:08;;;;;;;14.05;9.75;;;;;;;20.30;100.00;98972.97;5034191;28;20408;-75
2021/08/05 09:43:38;;;;;;;12.93;9.38;;;;;;;20.30;100.00;98957.59;5034014;28;20045;-75
2021/08/05 09:46:06;;;;;;;13.05;8.95;;;;;;;20.22;100.00;98954.13;5034311;28;20496;-76
2021/08/05 09:48:37;;;;;;;14.68;9.60;;;;;;;20.22;100.00;98951.41;5034182;28;20037;-75
2021/08/05 09:51:08;;;;;;;11.52;8.77;;;;;;;20.10;100.00;98952.91;5033727;28;20041;-75
2021/08/05 09:53:53;;;;;;;15.38;9.65;;;;;;;20.18;100.00;98947.41;5033865;28;20041;-75
2021/08/05 09:56:22;;;;;;;13.68;8.90;;;;;;;20.21;100.00;98957.84;5033514;28;20041;-75
2021/08/05 09:58:51;;;;;;;13.07;9.32;;;;;;;20.19;100.00;98955.34;5033493;28;20046;-75
2021/08/05 10:01:20;;;;;;;14.32;9.88;;;;;;;20.36;100.00;98942.44;5033349;28;20056;-75
2021/08/05 10:03:48;;;;;;;11.68;8.18;;;;;;;20.20;100.00;98948.06;5033384;28;20136;-75
2021/08/05 10:06:16;;;;;;;13.00;9.35;;;;;;;20.41;100.00;98917.53;5033240;28;20083;-75
2021/08/05 10:08:46;;;;;;;12.35;8.88;;;;;;;20.57;100.00;98899.25;5033319;28;20534;-76
2021/08/05 10:11:16;;;;;;;11.80;8.60;;;;;;;20.76;100.00;98889.69;5033080;28;20037;-75
2021/08/05 10:13:44;;;;;;;12.05;9.18;;;;;;;20.91;100.00;98884.19;5033403;28;20037;-75
2021/08/05 10:16:13;;;;;;;14.82;9.88;;;;;;;21.03;100.00;98844.72;5032939;28;20045;-75
2021/08/05 10:18:42;;;;;;;13.65;9.63;;;;;;;21.06;100.00;98833.50;5033507;28;20107;-75
2021/08/05 10:21:13;;;;;;;13.30;9.25;;;;;;;21.00;100.00;98861.38;5033089;28;20491;-76
2021/08/05 10:23:44;;;;;;;13.95;9.30;;;;;;;21.27;100.00;98910.47;5033346;28;20460;-75
2021/08/05 10:26:14;;;;;;;13.65;8.75;;;;;;;21.23;100.00;98930.84;5033074;28;20484;-75
2021/08/05 10:28:42;;;;;;;12.05;8.40;;;;;;;21.07;100.00;98930.06;5032403;28;20139;-76
2021/08/05 10:31:14;;;;;;;12.77;9.45;;;;;;;20.88;100.00;98933.38;5032904;28;20038;-75
2021/08/05 10:33:46;;;;;;;13.38;9.07;;;;;;;20.95;100.00;98934.31;5032897;28;20076;-76
2021/08/05 10:36:14;;;;;;;13.18;8.25;;;;;;;20.97;100.00;98948.50;5033166;28;20051;-75
2021/08/05 10:38:43;;;;;;;13.13;8.75;;;;;;;21.12;100.00;98956.59;5033389;28;20037;-75
2021/08/05 10:41:13;;;;;;;15.18;9.27;;;;;;;21.21;100.00;98976.28;5032830;28;20119;-76
2021/08/05 10:43:42;;;;;;;13.93;9.35;;;;;;;21.06;100.00;98985.31;5032067;28;20409;-76
2021/08/05 10:46:10;;;;;;;13.20;9.52;;;;;;;21.05;100.00;98989.06;5032451;28;20053;-76
2021/08/05 10:48:42;;;;;;;14.55;9.88;;;;;;;21.02;100.00;98978.56;5032908;28;20401;-76
2021/08/05 10:51:12;;;;;;;12.35;9.63;;;;;;;21.06;100.00;98969.03;5032808;28;20100;-76
2021/08/05 10:53:46;;;;;;;11.48;8.80;;;;;;;21.17;100.00;98958.72;5033125;28;20088;-75
2021/08/05 10:56:25;;;;;;;15.05;9.70;;;;;;;21.12;100.00;98949.28;5032783;28;20037;-76
2021/08/05 10:59:05;;;;;;;10.95;8.40;;;;;;;21.09;100.00;98957.81;5033160;28;20476;-76
2021/08/05 11:01:58;;;;;;;12.75;8.50;;;;;;;21.01;100.00;98955.22;5033099;28;20045;-76
2021/08/05 11:04:45;;;;;;;12.80;8.98;;;;;;;20.95;100.00;98947.84;5018655;28;20137;-76
2021/08/05 11:07:27;;;;;;;10.82;9.07;;;;;;;20.92;100.00;98945.50;5033090;28;20041;-76
2021/08/05 11:10:25;;;;;;;13.57;9.67;;;;;;;21.04;100.00;98954.84;5033148;28;20400;-76
2021/08/05 11:12:58;;;;;;;14.60;11.38;;;;;;;20.95;100.00;98950.56;5032897;28;20079;-76
2021/08/05 11:15:48;;;;;;;15.50;11.57;;;;;;;20.92;100.00;98945.50;5032269;28;20045;-76
2021/08/05 11:18:22;;;;;;;17.70;11.85;;;;;;;20.93;100.00;98941.75;5032810;28;20045;-75
2021/08/05 11:21:35;;;;;;;16.58;11.63;;;;;;;21.13;100.00;98940.16;5032887;28;20038;-75
2021/08/05 11:24:04;;;;;;;;;;;;;;;21.05;100.00;98955.69;5032756;28;20129;-76
2021/08/05 11:26:32;;;;;;;16.10;12.07;;;;;;;21.04;100.00;98952.13;5032733;28;19927;-75
2021/08/05 11:29:05;;;;;;;15.32;11.60;;;;;;;21.01;100.00;98952.50;5032231;28;20049;-75
2021/08/05 11:31:39;;;;;;;16.88;12.20;;;;;;;20.99;100.00;98941.00;5032535;28;20552;-75
2021/08/05 11:34:12;;;;;;;18.05;13.20;;;;;;;21.02;100.00;98945.19;5032472;28;20052;-76
2021/08/05 11:36:46;;;;;;;16.35;12.77;;;;;;;21.01;100.00;98943.53;5032870;28;20091;-75
2021/08/05 11:39:23;;;;;;;17.88;12.80;;;;;;;20.94;100.00;98935.34;5032523;28;20038;-75
2021/08/05 11:41:54;;;;;;;16.63;12.43;;;;;;;21.00;100.00;98936.44;5032635;28;20107;-75
2021/08/05 11:44:41;;;;;;;18.92;12.43;;;;;;;20.96;100.00;98930.56;5032203;28;20451;-75